Time;durP1;ratioP1;P1;durP2;ratioP2;P2;SDS_P1;SDS_P2;PMS_P1;PMS_P2;Temp;Humidity;BMP_temperature;BMP_pressure;BME280_temperature;BME280_humidity;BME280_pressure;Samples;Min_cycle;Max_cycle;Signal;HPM_P1;HPM_P2
2022/11/01 00:02:13;;;;;;;10.10;5.07;;;12.70;99.90;;;;;;4955786;28;20047;-61
2022/11/01 00:04:38;;;;;;;10.30;5.22;;;12.70;99.90;;;;;;4939102;29;20049;-64
2022/11/01 00:07:05;;;;;;;12.57;5.68;;;12.60;99.90;;;;;;4956111;29;20097;-61
2022/11/01 00:09:31;;;;;;;13.90;5.50;;;12.70;99.90;;;;;;4956224;29;20039;-61
2022/11/01 00:11:57;;;;;;;8.10;4.50;;;12.70;99.90;;;;;;4956324;29;20126;-61
2022/11/01 00:14:23;;;;;;;8.30;4.65;;;12.60;99.90;;;;;;4938821;29;20050;-61
2022/11/01 00:16:49;;;;;;;13.20;5.50;;;12.60;99.90;;;;;;4956167;29;20031;-61
2022/11/01 00:19:14;;;;;;;9.93;4.40;;;12.60;99.90;;;;;;4938959;29;20122;-61
2022/11/01 00:21:40;;;;;;;12.73;5.28;;;12.60;99.90;;;;;;4956220;29;20062;-61
2022/11/01 00:24:06;;;;;;;9.85;5.63;;;12.60;99.90;;;;;;4956150;29;20069;-61
2022/11/01 00:26:32;;;;;;;8.88;5.00;;;12.60;99.90;;;;;;4955786;29;20047;-61
2022/11/01 00:28:57;;;;;;;9.27;5.05;;;12.60;99.90;;;;;;4955993;29;20051;-61
2022/11/01 00:31:23;;;;;;;9.15;5.10;;;12.60;99.90;;;;;;4955904;29;20039;-61
2022/11/01 00:33:49;;;;;;;8.57;4.88;;;12.60;99.90;;;;;;4955612;29;20042;-61
2022/11/01 00:36:15;;;;;;;10.13;4.90;;;12.60;99.90;;;;;;4955845;28;20027;-61
2022/11/01 00:38:41;;;;;;;9.77;4.38;;;12.90;99.90;;;;;;4955432;29;20063;-61
2022/11/01 00:41:06;;;;;;;12.57;5.07;;;12.60;99.90;;;;;;4938666;29;20039;-63
2022/11/01 00:43:34;;;;;;;12.20;5.30;;;12.60;99.90;;;;;;4955822;29;20043;-61
2022/11/01 00:46:00;;;;;;;6.72;4.13;;;12.70;99.90;;;;;;4955468;29;20046;-61
2022/11/01 00:48:26;;;;;;;7.65;4.35;;;12.70;99.90;;;;;;4955496;29;20542;-61
2022/11/01 00:50:52;;;;;;;11.65;4.90;;;12.80;99.90;;;;;;4955600;29;20099;-61
2022/11/01 00:53:18;;;;;;;8.95;4.18;;;12.70;99.90;;;;;;4955393;29;20039;-61
2022/11/01 00:55:44;;;;;;;8.98;4.82;;;12.70;99.90;;;;;;4938154;29;20126;-61
2022/11/01 00:58:10;;;;;;;8.35;4.55;;;12.70;99.90;;;;;;4955385;29;20110;-61
2022/11/01 01:00:36;;;;;;;7.45;4.38;;;12.80;99.90;;;;;;4955584;29;20043;-61
2022/11/01 01:03:03;;;;;;;8.18;4.40;;;12.80;99.90;;;;;;4955608;29;20050;-61
2022/11/01 01:05:29;;;;;;;8.00;4.07;;;12.80;99.90;;;;;;4955309;29;20047;-61
2022/11/01 01:07:55;;;;;;;8.82;4.75;;;12.80;99.90;;;;;;4955515;29;20050;-61
2022/11/01 01:10:21;;;;;;;10.45;4.43;;;12.80;99.90;;;;;;4955452;29;20043;-61
2022/11/01 01:12:49;;;;;;;8.00;4.35;;;12.80;99.90;;;;;;4938281;29;20070;-61
2022/11/01 01:15:15;;;;;;;7.63;4.60;;;12.80;99.90;;;;;;4937241;29;20039;-61
2022/11/01 01:17:41;;;;;;;6.53;4.07;;;12.80;99.90;;;;;;4955236;29;20039;-61
2022/11/01 01:20:07;;;;;;;7.70;3.75;;;12.80;99.90;;;;;;4955490;29;20145;-64
2022/11/01 01:22:33;;;;;;;7.32;4.38;;;12.80;99.90;;;;;;4955528;29;20062;-61
2022/11/01 01:24:58;;;;;;;10.00;4.45;;;12.90;99.90;;;;;;4955382;29;20098;-61
2022/11/01 01:27:24;;;;;;;7.28;4.07;;;12.90;99.90;;;;;;4955342;29;20039;-61
2022/11/01 01:29:51;;;;;;;7.00;3.50;;;12.90;99.90;;;;;;4955347;29;20031;-61
2022/11/01 01:32:20;;;;;;;9.32;4.72;;;12.90;99.90;;;;;;4954877;29;20102;-61
2022/11/01 01:34:46;;;;;;;7.70;3.83;;;13.00;99.90;;;;;;4954972;29;20086;-61
2022/11/01 01:37:14;;;;;;;6.28;3.33;;;13.00;99.90;;;;;;4955004;29;20059;-61
2022/11/01 01:39:40;;;;;;;8.00;3.63;;;13.10;99.90;;;;;;4937883;29;20102;-61
2022/11/01 01:42:34;;;;;;;6.18;3.78;;;13.10;99.90;;;;;;4954886;29;20043;-61
2022/11/01 01:44:59;;;;;;;9.07;3.72;;;13.10;99.90;;;;;;4955169;29;20391;-61
2022/11/01 01:47:28;;;;;;;7.43;3.67;;;13.10;99.90;;;;;;4954933;29;20039;-61
2022/11/01 01:50:23;;;;;;;8.80;3.58;;;13.20;99.90;;;;;;4955195;29;20432;-61
2022/11/01 01:52:55;;;;;;;5.82;3.60;;;13.20;99.90;;;;;;4937987;29;20143;-61
2022/11/01 01:55:41;;;;;;;8.75;4.45;;;13.20;99.90;;;;;;4955104;29;20444;-61
2022/11/01 01:58:09;;;;;;;6.35;3.40;;;13.20;99.90;;;;;;4955074;29;20566;-62
2022/11/01 02:00:35;;;;;;;7.90;3.20;;;13.20;99.90;;;;;;4955059;29;20487;-61
2022/11/01 02:03:01;;;;;;;6.00;3.30;;;13.30;99.90;;;;;;4937592;29;20051;-61
2022/11/01 02:05:47;;;;;;;8.13;4.00;;;13.30;99.90;;;;;;4954762;29;20043;-61
2022/11/01 02:08:14;;;;;;;6.70;3.42;;;13.30;99.90;;;;;;4954998;29;20394;-61
2022/11/01 02:10:40;;;;;;;11.65;4.00;;;13.30;99.90;;;;;;4954904;29;20506;-61
2022/11/01 02:13:13;;;;;;;7.43;3.25;;;13.30;99.90;;;;;;4937732;29;20078;-61
2022/11/01 02:15:57;;;;;;;6.55;3.33;;;13.20;99.90;;;;;;4954894;29;20483;-61
2022/11/01 02:18:44;;;;;;;7.30;3.47;;;13.30;99.90;;;;;;4954884;29;20071;-61
2022/11/01 02:21:13;;;;;;;9.73;3.45;;;13.30;99.90;;;;;;4954897;29;20126;-61
2022/11/01 02:24:04;;;;;;;8.38;3.50;;;13.30;99.90;;;;;;4954847;29;20058;-61
2022/11/01 02:26:55;;;;;;;8.20;3.88;;;13.30;99.90;;;;;;4928029;29;20051;-61
2022/11/01 02:29:35;;;;;;;7.13;3.30;;;13.30;99.90;;;;;;4958315;29;20050;-61
2022/11/01 02:32:15;;;;;;;5.82;2.75;;;13.30;99.90;;;;;;4958225;29;20042;-61
2022/11/01 02:34:54;;;;;;;6.15;3.15;;;13.30;99.90;;;;;;4958290;29;20061;-61
2022/11/01 02:37:33;;;;;;;6.68;3.60;;;13.30;99.90;;;;;;4957963;29;20074;-61
2022/11/01 02:40:04;;;;;;;8.52;3.50;;;13.30;99.90;;;;;;4957821;29;20126;-61
2022/11/01 02:42:43;;;;;;;5.70;3.13;;;13.30;99.90;;;;;;4958171;29;20054;-61
2022/11/01 02:45:27;;;;;;;9.25;3.00;;;13.20;99.90;;;;;;4957850;29;20043;-61
2022/11/01 02:47:58;;;;;;;12.60;3.30;;;13.30;99.90;;;;;;4957631;29;20043;-61
2022/11/01 02:50:32;;;;;;;10.90;3.35;;;13.30;99.90;;;;;;4957847;29;20039;-61
2022/11/01 02:52:58;;;;;;;8.85;3.75;;;13.30;99.90;;;;;;4957860;29;20057;-61
2022/11/01 02:55:32;;;;;;;8.10;2.85;;;13.40;99.90;;;;;;4957890;29;20491;-61
2022/11/01 02:58:02;;;;;;;4.78;2.72;;;13.40;99.90;;;;;;4957545;29;20075;-61
2022/11/01 03:00:35;;;;;;;9.10;3.20;;;13.40;99.90;;;;;;4957797;29;20684;-61
2022/11/01 03:03:25;;;;;;;7.18;3.40;;;13.40;99.90;;;;;;4957710;29;20043;-61
2022/11/01 03:05:59;;;;;;;5.03;2.88;;;13.40;99.90;;;;;;4957719;29;20098;-61
2022/11/01 03:08:27;;;;;;;4.03;2.40;;;13.50;99.90;;;;;;4940479;29;20050;-61
2022/11/01 03:11:10;;;;;;;6.70;3.33;;;13.60;99.90;;;;;;4957474;29;20054;-61
2022/11/01 03:13:42;;;;;;;4.68;2.67;;;13.70;99.90;;;;;;4957537;29;20046;-61
2022/11/01 03:16:24;;;;;;;4.72;2.53;;;13.70;99.90;;;;;;4940026;29;20047;-62
2022/11/01 03:19:11;;;;;;;8.43;3.30;;;13.90;99.90;;;;;;4940018;29;20051;-61
2022/11/01 03:21:41;;;;;;;5.18;2.92;;;13.90;99.90;;;;;;4957453;29;20491;-62
2022/11/01 03:24:24;;;;;;;7.38;2.97;;;14.10;99.90;;;;;;4957335;29;20046;-62
2022/11/01 03:27:00;;;;;;;6.55;2.15;;;14.10;99.90;;;;;;4957294;29;20047;-62
2022/11/01 03:29:29;;;;;;;7.82;2.80;;;14.20;99.90;;;;;;4924695;29;20118;-61
2022/11/01 03:31:56;;;;;;;5.40;2.60;;;14.20;99.90;;;;;;4957124;29;20085;-61
2022/11/01 03:34:23;;;;;;;5.82;2.78;;;14.30;99.90;;;;;;4957080;29;20439;-61
2022/11/01 03:36:51;;;;;;;5.28;2.97;;;14.30;99.90;;;;;;4955994;28;20059;-61
2022/11/01 03:39:42;;;;;;;5.32;2.45;;;14.30;99.90;;;;;;4956741;29;20075;-61
2022/11/01 03:42:11;;;;;;;6.30;3.10;;;14.30;99.90;;;;;;4956646;29;20043;-61
2022/11/01 03:44:47;;;;;;;5.07;2.70;;;14.40;99.90;;;;;;4939765;29;20487;-61
2022/11/01 03:47:14;;;;;;;8.45;2.45;;;14.40;99.90;;;;;;4939545;29;20577;-61
2022/11/01 03:49:40;;;;;;;5.10;2.83;;;14.60;99.90;;;;;;4956825;29;20407;-61
2022/11/01 03:52:06;;;;;;;5.70;2.45;;;14.50;99.90;;;;;;4956541;29;20039;-61
2022/11/01 03:54:31;;;;;;;5.40;2.83;;;14.50;99.90;;;;;;4956719;29;20039;-61
2022/11/01 03:56:57;;;;;;;6.25;2.38;;;14.50;99.90;;;;;;4956603;29;20098;-61
2022/11/01 03:59:25;;;;;;;4.68;2.10;;;14.40;99.90;;;;;;4956631;29;20099;-61
2022/11/01 04:01:51;;;;;;;6.35;2.50;;;14.40;99.90;;;;;;4956307;29;20055;-61
2022/11/01 04:04:17;;;;;;;6.07;2.75;;;14.40;99.90;;;;;;4956231;29;20043;-61
2022/11/01 04:06:42;;;;;;;6.00;2.20;;;14.40;99.90;;;;;;4923257;29;20110;-61
2022/11/01 04:09:09;;;;;;;4.32;2.65;;;14.30;99.90;;;;;;4956129;29;20483;-61
2022/11/01 04:11:34;;;;;;;4.05;2.30;;;14.30;99.90;;;;;;4956377;29;20074;-61
2022/11/01 04:22:13;;;;;;;5.10;2.60;;;14.30;99.90;;;;;;4956231;29;20127;-61
2022/11/01 04:24:39;;;;;;;4.18;2.20;;;14.30;99.90;;;;;;4956246;29;20122;-61
2022/11/01 04:27:05;;;;;;;3.63;2.28;;;14.20;99.90;;;;;;4955899;29;20472;-61
2022/11/01 04:29:31;;;;;;;5.80;1.88;;;14.20;99.90;;;;;;4955811;29;20079;-61
2022/11/01 04:31:56;;;;;;;6.55;2.20;;;14.30;99.90;;;;;;4938517;29;20134;-62
2022/11/01 04:37:07;;;;;;;3.45;1.90;;;14.30;99.90;;;;;;4955734;29;20062;-61
2022/11/01 04:39:33;;;;;;;4.35;1.90;;;14.40;99.90;;;;;;4955987;29;20132;-61
2022/11/01 04:41:58;;;;;;;3.80;2.47;;;14.40;99.90;;;;;;4955962;29;20035;-61
2022/11/01 04:44:24;;;;;;;7.05;2.13;;;14.40;99.90;;;;;;4938751;29;20055;-61
2022/11/01 04:46:50;;;;;;;3.22;1.80;;;14.50;99.90;;;;;;4955881;29;20071;-61
2022/11/01 04:49:15;;;;;;;3.80;2.22;;;14.60;99.90;;;;;;4938399;29;20040;-61
2022/11/01 04:51:41;;;;;;;3.45;1.80;;;14.70;99.90;;;;;;4938410;29;20047;-61
2022/11/01 04:54:07;;;;;;;5.43;2.20;;;14.80;99.90;;;;;;4955771;29;20108;-61
2022/11/01 04:56:33;;;;;;;6.07;2.30;;;14.80;99.90;;;;;;4922794;29;20499;-61
2022/11/01 04:58:58;;;;;;;4.22;2.03;;;14.90;99.90;;;;;;4955344;29;20094;-61
2022/11/01 05:01:24;;;;;;;4.32;2.15;;;14.90;99.90;;;;;;4955699;29;20122;-61
2022/11/01 05:03:50;;;;;;;7.15;2.45;;;14.90;99.90;;;;;;4955630;29;20050;-61
2022/11/01 05:06:16;;;;;;;5.07;2.28;;;15.00;99.90;;;;;;4938120;29;20051;-60
2022/11/01 05:08:41;;;;;;;4.57;2.30;;;15.00;99.90;;;;;;4938343;29;20101;-61
2022/11/01 05:11:07;;;;;;;2.42;1.60;;;15.00;99.90;;;;;;4937991;29;20411;-61
2022/11/01 05:13:33;;;;;;;3.53;1.75;;;15.00;99.90;;;;;;4955530;29;20081;-61
2022/11/01 05:16:02;;;;;;;3.75;1.80;;;15.00;99.90;;;;;;4955440;29;20062;-61
2022/11/01 05:18:28;;;;;;;3.65;2.10;;;15.00;99.90;;;;;;4955233;29;20039;-61
2022/11/01 05:20:55;;;;;;;4.82;1.75;;;15.00;99.90;;;;;;4955359;29;20126;-61
2022/11/01 05:23:21;;;;;;;4.47;1.92;;;15.00;99.90;;;;;;4938311;29;20039;-61
2022/11/01 05:25:47;;;;;;;2.72;1.67;;;15.00;99.90;;;;;;4955180;29;20406;-61
2022/11/01 05:28:13;;;;;;;3.30;1.75;;;15.10;99.90;;;;;;4955405;29;20035;-61
2022/11/01 05:30:40;;;;;;;3.60;1.98;;;15.10;99.90;;;;;;4955254;29;20039;-61
2022/11/01 05:33:08;;;;;;;3.63;1.75;;;15.10;99.90;;;;;;4955256;29;20495;-61
2022/11/01 05:35:35;;;;;;;2.67;1.65;;;15.10;99.90;;;;;;4955296;29;20395;-61
2022/11/01 05:38:02;;;;;;;5.15;1.50;;;15.10;99.90;;;;;;4954890;29;20062;-61
2022/11/01 05:40:28;;;;;;;4.75;2.10;;;15.10;99.90;;;;;;4955285;29;20102;-61
2022/11/01 05:42:54;;;;;;;2.92;1.58;;;15.20;99.90;;;;;;4938036;29;20551;-61
2022/11/01 05:45:20;;;;;;;3.53;1.90;;;15.30;99.90;;;;;;4938182;29;20039;-61
2022/11/01 05:47:45;;;;;;;5.60;2.00;;;15.30;99.90;;;;;;4955100;29;20035;-62
2022/11/01 05:50:13;;;;;;;4.07;2.05;;;15.40;99.90;;;;;;4937727;29;20047;-61
2022/11/01 05:52:39;;;;;;;4.63;1.90;;;15.40;99.90;;;;;;4955098;29;20047;-61
2022/11/01 05:55:06;;;;;;;2.10;1.40;;;15.40;99.90;;;;;;4955108;29;20035;-61
2022/11/01 05:57:32;;;;;;;5.30;2.15;;;15.30;99.90;;;;;;4937651;29;20039;-61
2022/11/01 05:59:58;;;;;;;4.60;1.85;;;15.40;99.90;;;;;;4955392;28;20043;-61
2022/11/01 06:02:24;;;;;;;3.65;1.67;;;15.40;99.90;;;;;;4958497;29;20054;-61
2022/11/01 06:04:49;;;;;;;8.32;1.98;;;15.50;99.90;;;;;;4941234;29;20399;-61
2022/11/01 06:07:15;;;;;;;8.25;1.85;;;15.50;99.90;;;;;;4958712;29;20046;-61
2022/11/01 06:13:21;;;;;;;2.63;1.45;;;15.50;99.90;;;;;;4958681;29;20135;-61
2022/11/01 06:15:47;;;;;;;1.65;0.85;;;15.40;99.90;;;;;;4958509;29;20522;-62
2022/11/01 06:18:13;;;;;;;3.42;1.10;;;15.30;99.90;;;;;;4958549;29;20471;-62
2022/11/01 06:20:38;;;;;;;2.13;0.85;;;15.30;99.20;;;;;;4941296;29;20042;-61
2022/11/01 06:23:09;;;;;;;0.90;0.50;;;15.10;99.90;;;;;;4941212;29;20169;-61
2022/11/01 06:25:35;;;;;;;3.28;0.80;;;15.10;99.30;;;;;;4958112;29;20183;-61
2022/11/01 06:28:01;;;;;;;1.60;0.52;;;15.00;99.40;;;;;;4958106;29;20035;-62
2022/11/01 06:30:27;;;;;;;4.53;1.10;;;14.90;99.90;;;;;;4958122;29;20047;-61
2022/11/01 06:32:58;;;;;;;0.45;0.43;;;14.70;99.90;;;;;;4957972;29;20066;-61
2022/11/01 06:35:26;;;;;;;1.10;0.50;;;14.60;99.90;;;;;;4957872;29;20047;-61
2022/11/01 06:38:00;;;;;;;0.90;0.43;;;14.50;99.90;;;;;;4957834;28;20435;-61
2022/11/01 06:40:26;;;;;;;0.40;0.40;;;14.40;97.20;;;;;;4958129;29;20039;-61
2022/11/01 06:42:51;;;;;;;1.10;0.88;;;14.40;97.90;;;;;;4958074;29;20035;-61
2022/11/01 06:45:17;;;;;;;0.60;0.45;;;14.30;98.20;;;;;;4957960;29;20094;-61
2022/11/01 06:47:46;;;;;;;0.32;0.30;;;14.10;99.00;;;;;;4957983;29;20465;-62
2022/11/01 06:50:12;;;;;;;0.90;0.80;;;14.10;97.80;;;;;;4957932;29;20142;-61
2022/11/01 06:52:38;;;;;;;0.60;0.30;;;14.10;98.70;;;;;;4957912;29;20126;-61
2022/11/01 06:55:03;;;;;;;0.50;0.30;;;14.00;99.50;;;;;;4940414;29;20122;-61
2022/11/01 06:57:29;;;;;;;1.17;0.70;;;14.00;99.90;;;;;;4940702;29;20119;-60
2022/11/01 06:59:56;;;;;;;1.00;0.40;;;13.90;99.90;;;;;;4940462;29;20043;-61
2022/11/01 07:02:21;;;;;;;0.77;0.57;;;13.90;99.90;;;;;;4940231;29;20126;-60
2022/11/01 07:04:47;;;;;;;1.85;0.47;;;13.90;99.90;;;;;;4957606;29;20047;-61
2022/11/01 07:07:13;;;;;;;2.17;0.90;;;13.90;99.90;;;;;;4940438;29;20045;-60
2022/11/01 07:09:38;;;;;;;1.00;0.57;;;13.90;99.90;;;;;;4940245;29;20046;-61
2022/11/01 07:12:04;;;;;;;1.02;0.50;;;13.80;99.90;;;;;;4956158;28;20130;-61
2022/11/01 07:14:30;;;;;;;2.75;0.57;;;13.80;99.90;;;;;;4940131;29;20044;-61
2022/11/01 07:16:56;;;;;;;1.15;0.65;;;13.80;99.90;;;;;;4957444;29;20039;-61
2022/11/01 07:19:22;;;;;;;3.80;0.82;;;13.80;99.80;;;;;;4957447;29;20046;-61
2022/11/01 07:21:48;;;;;;;0.47;0.45;;;13.80;99.30;;;;;;4957040;29;20047;-61
2022/11/01 07:24:14;;;;;;;0.60;0.28;;;13.90;98.50;;;;;;4957300;29;20047;-62
2022/11/01 07:26:40;;;;;;;2.80;0.70;;;13.70;97.80;;;;;;4939900;29;20043;-61
2022/11/01 07:29:05;;;;;;;2.35;0.65;;;13.70;97.10;;;;;;4957206;29;20072;-61
2022/11/01 07:31:32;;;;;;;1.10;0.50;;;13.70;97.80;;;;;;4957102;29;20055;-62
2022/11/01 07:33:58;;;;;;;1.35;0.57;;;13.70;95.60;;;;;;4957042;29;20094;-62
2022/11/01 07:36:24;;;;;;;1.27;0.68;;;13.70;95.70;;;;;;4956463;29;20082;-62
2022/11/01 07:38:50;;;;;;;1.40;0.30;;;13.80;96.00;;;;;;4956996;29;20066;-61
2022/11/01 07:41:16;;;;;;;1.48;0.60;;;13.90;93.20;;;;;;4939371;29;20047;-62
2022/11/01 07:43:41;;;;;;;3.00;0.65;;;14.00;94.90;;;;;;4956774;29;20046;-61
2022/11/01 07:46:07;;;;;;;1.00;0.45;;;14.10;94.20;;;;;;4956841;29;20043;-62
2022/11/01 07:48:35;;;;;;;1.20;0.35;;;14.20;94.50;;;;;;4956788;29;20042;-61
2022/11/01 07:51:04;;;;;;;0.85;0.40;;;14.30;93.90;;;;;;4956686;29;20190;-60
2022/11/01 07:53:30;;;;;;;1.67;0.40;;;14.40;96.00;;;;;;4956640;29;20039;-61
2022/11/01 07:55:56;;;;;;;2.22;0.52;;;14.50;94.40;;;;;;4939374;29;20039;-62
2022/11/01 07:58:21;;;;;;;0.52;0.30;;;14.50;94.10;;;;;;4956658;29;20039;-62
2022/11/01 08:00:47;;;;;;;3.35;0.80;;;14.50;92.70;;;;;;4956489;29;20376;-61
2022/11/01 08:03:15;;;;;;;2.70;0.47;;;14.50;92.40;;;;;;4956861;29;20043;-62
2022/11/01 08:05:41;;;;;;;1.88;0.50;;;14.50;92.50;;;;;;4956430;29;20051;-61
2022/11/01 08:08:08;;;;;;;4.47;0.77;;;14.50;93.20;;;;;;4956278;29;20039;-62
2022/11/01 08:10:35;;;;;;;1.27;0.50;;;14.40;93.30;;;;;;4955781;29;20051;-61
2022/11/01 08:13:19;;;;;;;1.98;0.63;;;14.40;93.10;;;;;;4956268;29;20094;-61
2022/11/01 08:15:46;;;;;;;0.35;0.30;;;14.40;91.60;;;;;;4938804;29;20098;-62
2022/11/01 08:18:12;;;;;;;4.22;0.60;;;14.40;91.30;;;;;;4956277;29;20074;-65
2022/11/01 08:20:39;;;;;;;3.40;0.45;;;14.40;89.50;;;;;;4956165;29;20035;-63
2022/11/01 08:23:06;;;;;;;1.55;0.57;;;14.40;83.90;;;;;;4938199;29;20098;-61
2022/11/01 08:25:33;;;;;;;2.75;0.47;;;14.40;87.80;;;;;;4938022;29;20043;-61
2022/11/01 08:28:08;;;;;;;4.82;0.50;;;14.40;82.80;;;;;;4954853;29;20039;-66
2022/11/01 08:30:36;;;;;;;2.65;0.85;;;14.40;89.20;;;;;;4955139;29;20039;-62
2022/11/01 08:33:03;;;;;;;1.15;0.40;;;14.50;87.10;;;;;;4937612;29;20050;-62
2022/11/01 08:35:29;;;;;;;3.03;0.80;;;14.40;83.90;;;;;;4955081;29;20043;-61
2022/11/01 08:37:57;;;;;;;1.60;0.63;;;14.40;83.00;;;;;;4954672;29;20133;-62
2022/11/01 08:40:25;;;;;;;1.55;0.73;;;14.40;80.40;;;;;;4954637;29;20058;-62
2022/11/01 08:42:51;;;;;;;3.97;1.02;;;14.40;73.20;;;;;;4954701;29;20122;-61
2022/11/01 08:45:16;;;;;;;3.78;0.55;;;14.40;74.50;;;;;;4954825;29;20122;-65
2022/11/01 08:47:42;;;;;;;3.70;0.73;;;14.40;75.50;;;;;;4954866;29;20047;-62
2022/11/01 08:50:10;;;;;;;2.53;1.02;;;14.50;68.00;;;;;;4954757;29;20043;-61
2022/11/01 08:52:36;;;;;;;2.58;0.70;;;14.50;76.60;;;;;;4937263;29;20146;-61
2022/11/01 08:55:02;;;;;;;7.07;1.15;;;14.40;71.60;;;;;;4937694;29;20151;-61
2022/11/01 08:57:29;;;;;;;4.40;0.73;;;14.50;71.50;;;;;;4954691;29;20075;-61
2022/11/01 08:59:54;;;;;;;3.08;0.95;;;14.50;71.70;;;;;;4954628;29;20046;-62
2022/11/01 09:02:20;;;;;;;5.65;1.23;;;14.50;69.40;;;;;;4937154;29;20526;-61
2022/11/01 09:04:46;;;;;;;3.38;0.50;;;14.50;76.80;;;;;;4937478;29;20046;-61
2022/11/01 09:07:11;;;;;;;3.70;1.00;;;14.60;74.00;;;;;;4954698;29;20494;-61
2022/11/01 09:09:37;;;;;;;4.50;0.88;;;14.60;67.10;;;;;;4937147;29;20495;-61
2022/11/01 09:12:04;;;;;;;4.47;1.05;;;14.60;69.10;;;;;;4954069;29;20403;-61
2022/11/01 09:14:29;;;;;;;5.93;1.08;;;14.60;65.40;;;;;;4954520;29;20054;-61
2022/11/01 09:16:55;;;;;;;8.75;0.98;;;14.60;68.20;;;;;;4954403;29;20039;-62
2022/11/01 09:19:21;;;;;;;5.32;0.98;;;14.60;66.80;;;;;;4954485;29;20039;-61
2022/11/01 09:21:47;;;;;;;1.25;0.52;;;14.70;60.40;;;;;;4954350;29;20495;-61
2022/11/01 09:24:14;;;;;;;2.80;1.25;;;14.70;67.20;;;;;;4954353;29;20050;-61
2022/11/01 09:26:40;;;;;;;2.53;0.40;;;14.70;61.90;;;;;;4954349;29;20075;-62
2022/11/01 09:29:06;;;;;;;7.57;0.75;;;14.70;66.60;;;;;;4954244;29;20091;-62
2022/11/01 09:31:32;;;;;;;2.30;0.60;;;14.70;66.40;;;;;;4954190;29;20049;-62
2022/11/01 09:33:59;;;;;;;2.55;0.80;;;14.70;66.20;;;;;;4954254;28;20031;-61
2022/11/01 09:36:26;;;;;;;3.60;0.95;;;14.70;67.40;;;;;;4956786;29;20141;-62
2022/11/01 09:38:53;;;;;;;1.90;0.63;;;14.70;65.80;;;;;;4958178;29;20110;-61
2022/11/01 09:41:35;;;;;;;1.13;0.50;;;14.70;62.30;;;;;;4958193;29;20086;-61
2022/11/01 09:44:03;;;;;;;6.68;1.20;;;14.70;70.40;;;;;;4957859;29;20047;-61
2022/11/01 09:46:50;;;;;;;1.67;0.82;;;14.70;64.70;;;;;;4940869;29;20086;-61
2022/11/01 09:49:27;;;;;;;2.67;0.80;;;14.70;69.60;;;;;;4940483;29;20054;-61
2022/11/01 09:51:53;;;;;;;5.15;1.73;;;14.70;72.60;;;;;;4957608;29;20043;-61
2022/11/01 09:54:22;;;;;;;5.47;1.00;;;14.80;71.30;;;;;;4957934;29;20130;-60
2022/11/01 09:57:26;;;;;;;3.72;1.08;;;14.80;69.60;;;;;;4957609;29;20099;-61
2022/11/01 10:00:15;;;;;;;3.70;0.73;;;14.80;69.10;;;;;;4957491;29;20047;-60
2022/11/01 10:02:59;;;;;;;4.65;0.65;;;14.90;71.00;;;;;;4940373;29;20050;-61
2022/11/01 10:05:47;;;;;;;4.47;0.80;;;14.90;78.40;;;;;;4957457;29;20058;-61
2022/11/01 10:08:41;;;;;;;2.97;0.70;;;14.90;72.20;;;;;;4957759;29;20051;-60
2022/11/01 10:11:28;;;;;;;2.85;0.93;;;15.00;74.40;;;;;;4957646;29;20035;-61
2022/11/01 10:14:35;;;;;;;2.28;0.50;;;15.10;75.90;;;;;;4957529;29;20035;-60
2022/11/01 10:17:33;;;;;;;4.38;1.00;;;15.20;70.40;;;;;;4957648;29;20585;-60
2022/11/01 10:19:59;;;;;;;3.85;0.82;;;15.50;72.90;;;;;;4957336;29;20047;-60
2022/11/01 10:22:33;;;;;;;4.50;0.90;;;15.30;70.90;;;;;;4957548;29;20495;-61
2022/11/01 10:25:14;;;;;;;6.43;1.02;;;15.30;77.10;;;;;;4957245;29;20106;-61
2022/11/01 10:27:46;;;;;;;3.10;1.08;;;15.40;74.70;;;;;;4957513;29;20114;-61
2022/11/01 10:30:14;;;;;;;3.75;0.77;;;15.50;72.10;;;;;;4957521;29;20518;-60
2022/11/01 10:32:49;;;;;;;2.58;0.82;;;15.50;73.90;;;;;;4939990;29;20403;-61
2022/11/01 10:35:20;;;;;;;5.60;0.88;;;15.50;75.20;;;;;;4957313;29;20499;-61
2022/11/01 10:38:12;;;;;;;2.47;0.73;;;15.40;72.10;;;;;;4956889;28;20059;-62
2022/11/01 10:40:45;;;;;;;7.57;1.00;;;15.30;73.00;;;;;;4939735;29;20043;-60
2022/11/01 10:43:14;;;;;;;3.60;0.68;;;15.40;75.20;;;;;;4957257;29;20498;-62
2022/11/01 10:45:42;;;;;;;5.78;0.80;;;15.50;74.00;;;;;;4956454;28;20047;-62
2022/11/01 10:48:15;;;;;;;3.40;0.60;;;15.60;78.90;;;;;;4956840;29;20094;-61
2022/11/01 10:50:42;;;;;;;1.42;0.75;;;15.60;73.00;;;;;;4957021;29;20039;-62
2022/11/01 10:53:11;;;;;;;4.00;0.73;;;15.60;74.30;;;;;;4923823;29;20055;-62
2022/11/01 10:55:39;;;;;;;9.57;2.05;;;15.60;73.40;;;;;;4939525;29;20399;-61
2022/11/01 10:58:34;;;;;;;4.97;0.65;;;15.50;72.80;;;;;;4939707;29;20518;-62
2022/11/01 11:01:02;;;;;;;2.00;0.63;;;15.50;71.80;;;;;;4956057;29;20058;-61
2022/11/01 11:03:31;;;;;;;5.05;0.88;;;15.50;70.40;;;;;;4939182;29;20463;-61
2022/11/01 11:06:04;;;;;;;2.17;0.68;;;15.50;71.90;;;;;;4956328;29;20122;-60
2022/11/01 11:08:32;;;;;;;10.52;1.00;;;15.50;76.20;;;;;;4956635;29;20487;-61
2022/11/01 11:11:03;;;;;;;5.88;0.80;;;15.50;76.00;;;;;;4939498;29;20464;-60
2022/11/01 11:13:30;;;;;;;2.10;0.80;;;15.40;78.40;;;;;;4956242;29;20098;-60
2022/11/01 11:16:04;;;;;;;6.20;1.15;;;15.40;73.40;;;;;;4956495;29;20118;-61
2022/11/01 11:18:32;;;;;;;7.13;1.08;;;15.40;78.70;;;;;;4956575;29;20047;-62
2022/11/01 11:21:12;;;;;;;3.47;0.70;;;15.40;77.90;;;;;;4956508;29;20043;-63
2022/11/01 11:23:44;;;;;;;7.00;1.17;;;15.40;82.10;;;;;;4956517;29;20480;-61
2022/11/01 11:26:17;;;;;;;1.50;0.43;;;15.40;81.90;;;;;;4956492;29;20055;-61
2022/11/01 11:28:48;;;;;;;6.30;0.80;;;15.50;80.00;;;;;;4956130;29;20435;-61
2022/11/01 11:31:24;;;;;;;;;;;15.70;78.00;;;;;;4956713;29;20126;-61
2022/11/01 11:34:26;;;;;;;7.32;1.25;;;15.80;74.00;;;;;;4939048;29;20338;-61
2022/11/01 11:36:53;;;;;;;1.85;0.65;;;16.10;72.90;;;;;;4950584;28;20149;-61
2022/11/01 11:39:28;;;;;;;1.90;0.70;;;16.10;77.60;;;;;;4939005;29;20047;-62
2022/11/01 11:42:08;;;;;;;2.80;0.63;;;16.30;75.70;;;;;;4956141;29;20043;-61
2022/11/01 11:44:42;;;;;;;4.57;0.60;;;16.10;70.80;;;;;;4956147;29;20050;-65
2022/11/01 11:47:23;;;;;;;7.43;0.98;;;16.10;68.50;;;;;;4938766;29;20510;-61
2022/11/01 11:49:53;;;;;;;9.98;1.10;;;16.20;68.40;;;;;;4956041;29;20122;-60
2022/11/01 11:52:31;;;;;;;2.50;0.63;;;16.40;72.70;;;;;;4955899;29;20043;-61
2022/11/01 11:54:57;;;;;;;3.75;1.02;;;16.70;72.20;;;;;;4955919;29;20083;-62
2022/11/01 11:57:29;;;;;;;3.25;1.13;;;16.80;62.00;;;;;;4937879;29;20099;-61
2022/11/01 11:59:58;;;;;;;9.13;1.20;;;17.00;57.30;;;;;;4955621;29;20384;-62
2022/11/01 12:02:39;;;;;;;4.10;1.05;;;17.10;54.30;;;;;;4938270;29;20053;-62
2022/11/01 12:05:08;;;;;;;2.67;0.80;;;17.30;59.70;;;;;;4938258;29;20055;-61
2022/11/01 12:07:44;;;;;;;3.15;0.80;;;17.30;41.90;;;;;;4955726;29;20043;-62
2022/11/01 12:10:30;;;;;;;5.60;1.13;;;17.10;52.50;;;;;;4955657;29;20090;-61
2022/11/01 12:12:56;;;;;;;2.53;0.95;;;17.00;58.60;;;;;;4955528;29;20047;-61
2022/11/01 12:15:25;;;;;;;3.47;1.08;;;16.80;57.30;;;;;;4955550;29;20046;-61
2022/11/01 12:17:51;;;;;;;2.88;0.80;;;16.70;61.80;;;;;;4922262;29;20122;-61
2022/11/01 12:20:24;;;;;;;3.92;0.73;;;16.70;60.50;;;;;;4955437;29;20110;-61
2022/11/01 12:23:23;;;;;;;4.45;0.88;;;16.60;62.50;;;;;;4937900;29;20058;-61
2022/11/01 12:25:49;;;;;;;4.05;0.98;;;16.60;61.60;;;;;;4955024;29;20082;-61
2022/11/01 12:28:22;;;;;;;7.43;0.90;;;16.50;63.00;;;;;;4955245;29;20051;-62
2022/11/01 12:30:51;;;;;;;4.72;0.80;;;16.50;63.20;;;;;;4955232;29;20039;-65
2022/11/01 12:33:23;;;;;;;1.65;0.50;;;16.50;65.20;;;;;;4938387;29;20074;-64
2022/11/01 12:35:53;;;;;;;2.78;1.17;;;16.50;69.30;;;;;;4955237;29;20126;-61
2022/11/01 12:38:38;;;;;;;3.35;0.85;;;16.40;61.50;;;;;;4954787;29;20062;-62
2022/11/01 12:41:28;;;;;;;4.65;1.25;;;16.40;59.70;;;;;;4955120;29;20188;-62
2022/11/01 12:44:22;;;;;;;3.42;0.73;;;16.40;66.90;;;;;;4955095;29;20056;-62
2022/11/01 12:46:56;;;;;;;5.50;0.73;;;16.30;67.60;;;;;;4955024;29;20487;-61
2022/11/01 12:49:45;;;;;;;2.83;0.60;;;16.20;65.50;;;;;;4955019;29;20133;-61
2022/11/01 12:52:33;;;;;;;3.22;0.80;;;16.20;69.10;;;;;;4944621;29;20043;-62
2022/11/01 12:55:06;;;;;;;2.53;0.52;;;16.20;70.70;;;;;;4902402;29;20062;-61
2022/11/01 12:57:32;;;;;;;2.90;0.57;;;16.30;69.40;;;;;;4954888;29;20491;-61
2022/11/01 12:59:58;;;;;;;2.70;0.70;;;16.20;71.30;;;;;;4954570;29;20046;-61
2022/11/01 13:02:42;;;;;;;5.50;0.70;;;16.30;63.80;;;;;;4937580;29;20047;-61
2022/11/01 13:05:32;;;;;;;1.65;0.68;;;16.20;68.10;;;;;;4954431;29;20047;-60
2022/11/01 13:08:10;;;;;;;1.77;0.52;;;16.20;67.60;;;;;;4954642;29;20039;-61
2022/11/01 13:10:40;;;;;;;1.27;0.60;;;16.20;71.00;;;;;;4954500;28;20118;-61
2022/11/01 13:13:29;;;;;;;2.70;1.02;;;16.30;72.70;;;;;;4954263;29;20126;-64
2022/11/01 13:16:03;;;;;;;2.10;0.70;;;16.30;72.80;;;;;;4937425;29;20070;-66
2022/11/01 13:18:49;;;;;;;3.65;0.85;;;16.20;74.50;;;;;;4954337;29;20156;-64